sensor_id;sensor_type;location;lat;lon;timestamp;P1;durP1;ratioP1;P2;durP2;ratioP2
20609;SDS011;10463;52.378;9.688;2024-02-21T00:00:27;4.23;;;3.10;;
20609;SDS011;10463;52.378;9.688;2024-02-21T00:03:12;3.23;;;2.80;;
20609;SDS011;10463;52.378;9.688;2024-02-21T00:05:56;3.87;;;2.83;;
20609;SDS011;10463;52.378;9.688;2024-02-21T00:08:41;5.53;;;3.90;;
20609;SDS011;10463;52.378;9.688;2024-02-21T00:11:25;5.10;;;3.20;;
20609;SDS011;10463;52.378;9.688;2024-02-21T00:14:11;6.03;;;4.07;;
20609;SDS011;10463;52.378;9.688;2024-02-21T00:16:56;4.50;;;3.50;;
20609;SDS011;10463;52.378;9.688;2024-02-21T00:19:40;3.60;;;2.60;;
20609;SDS011;10463;52.378;9.688;2024-02-21T00:22:25;3.13;;;2.83;;
20609;SDS011;10463;52.378;9.688;2024-02-21T00:25:12;5.73;;;3.37;;
20609;SDS011;10463;52.378;9.688;2024-02-21T00:27:57;3.47;;;2.97;;
20609;SDS011;10463;52.378;9.688;2024-02-21T00:30:43;5.53;;;3.87;;
20609;SDS011;10463;52.378;9.688;2024-02-21T00:33:28;4.23;;;3.50;;
20609;SDS011;10463;52.378;9.688;2024-02-21T00:36:12;4.70;;;3.30;;
20609;SDS011;10463;52.378;9.688;2024-02-21T00:38:57;6.70;;;3.80;;
20609;SDS011;10463;52.378;9.688;2024-02-21T00:41:41;4.53;;;3.47;;
20609;SDS011;10463;52.378;9.688;2024-02-21T00:44:26;3.60;;;2.90;;
20609;SDS011;10463;52.378;9.688;2024-02-21T00:47:12;4.13;;;2.80;;
20609;SDS011;10463;52.378;9.688;2024-02-21T00:49:57;3.20;;;2.80;;
20609;SDS011;10463;52.378;9.688;2024-02-21T00:52:41;4.53;;;2.80;;
20609;SDS011;10463;52.378;9.688;2024-02-21T00:55:27;4.40;;;3.10;;
20609;SDS011;10463;52.378;9.688;2024-02-21T00:58:11;4.63;;;2.97;;
20609;SDS011;10463;52.378;9.688;2024-02-21T01:00:56;3.93;;;3.00;;
20609;SDS011;10463;52.378;9.688;2024-02-21T01:03:42;4.90;;;3.30;;
20609;SDS011;10463;52.378;9.688;2024-02-21T01:06:27;4.60;;;3.40;;
20609;SDS011;10463;52.378;9.688;2024-02-21T01:09:12;5.70;;;2.80;;
20609;SDS011;10463;52.378;9.688;2024-02-21T01:11:56;3.60;;;2.70;;
20609;SDS011;10463;52.378;9.688;2024-02-21T01:14:41;5.00;;;3.83;;
20609;SDS011;10463;52.378;9.688;2024-02-21T01:17:25;3.03;;;2.60;;
20609;SDS011;10463;52.378;9.688;2024-02-21T01:20:12;4.10;;;3.23;;
20609;SDS011;10463;52.378;9.688;2024-02-21T01:22:56;3.37;;;2.43;;
20609;SDS011;10463;52.378;9.688;2024-02-21T01:25:41;3.60;;;2.77;;
20609;SDS011;10463;52.378;9.688;2024-02-21T01:28:26;3.60;;;2.53;;
20609;SDS011;10463;52.378;9.688;2024-02-21T01:31:11;3.50;;;2.70;;
20609;SDS011;10463;52.378;9.688;2024-02-21T01:33:56;3.87;;;2.63;;
20609;SDS011;10463;52.378;9.688;2024-02-21T01:36:43;3.27;;;2.37;;
20609;SDS011;10463;52.378;9.688;2024-02-21T01:39:28;5.27;;;2.87;;
20609;SDS011;10463;52.378;9.688;2024-02-21T01:42:12;5.13;;;3.03;;
20609;SDS011;10463;52.378;9.688;2024-02-21T01:44:57;5.93;;;3.10;;
20609;SDS011;10463;52.378;9.688;2024-02-21T01:47:41;3.23;;;2.50;;
20609;SDS011;10463;52.378;9.688;2024-02-21T01:50:26;2.80;;;2.33;;
20609;SDS011;10463;52.378;9.688;2024-02-21T01:53:12;4.10;;;3.20;;
20609;SDS011;10463;52.378;9.688;2024-02-21T01:56:02;4.47;;;2.90;;
20609;SDS011;10463;52.378;9.688;2024-02-21T01:58:49;3.43;;;2.90;;
20609;SDS011;10463;52.378;9.688;2024-02-21T02:01:35;4.67;;;2.80;;
20609;SDS011;10463;52.378;9.688;2024-02-21T02:04:20;3.00;;;2.57;;
20609;SDS011;10463;52.378;9.688;2024-02-21T02:07:05;2.80;;;2.50;;
20609;SDS011;10463;52.378;9.688;2024-02-21T02:09:52;2.90;;;2.43;;
20609;SDS011;10463;52.378;9.688;2024-02-21T02:12:37;3.67;;;2.40;;
20609;SDS011;10463;52.378;9.688;2024-02-21T02:15:21;4.30;;;2.77;;
20609;SDS011;10463;52.378;9.688;2024-02-21T02:18:06;3.20;;;2.20;;
20609;SDS011;10463;52.378;9.688;2024-02-21T02:20:51;3.13;;;2.40;;
20609;SDS011;10463;52.378;9.688;2024-02-21T02:23:38;3.30;;;2.60;;
20609;SDS011;10463;52.378;9.688;2024-02-21T02:26:23;4.90;;;2.97;;
20609;SDS011;10463;52.378;9.688;2024-02-21T02:29:07;2.60;;;1.90;;
20609;SDS011;10463;52.378;9.688;2024-02-21T02:31:52;5.20;;;2.63;;
20609;SDS011;10463;52.378;9.688;2024-02-21T02:34:37;4.73;;;2.60;;
20609;SDS011;10463;52.378;9.688;2024-02-21T02:37:21;3.40;;;2.43;;
20609;SDS011;10463;52.378;9.688;2024-02-21T02:40:08;3.60;;;2.50;;
20609;SDS011;10463;52.378;9.688;2024-02-21T02:42:53;4.10;;;2.83;;
20609;SDS011;10463;52.378;9.688;2024-02-21T02:45:39;4.47;;;2.90;;
20609;SDS011;10463;52.378;9.688;2024-02-21T02:48:23;3.70;;;2.97;;
20609;SDS011;10463;52.378;9.688;2024-02-21T02:51:08;4.20;;;3.20;;
20609;SDS011;10463;52.378;9.688;2024-02-21T02:53:52;4.40;;;2.70;;
20609;SDS011;10463;52.378;9.688;2024-02-21T02:56:39;2.90;;;2.20;;
20609;SDS011;10463;52.378;9.688;2024-02-21T02:59:23;2.97;;;2.60;;
20609;SDS011;10463;52.378;9.688;2024-02-21T03:02:08;4.00;;;3.23;;
20609;SDS011;10463;52.378;9.688;2024-02-21T03:04:53;3.27;;;2.67;;
20609;SDS011;10463;52.378;9.688;2024-02-21T03:07:37;3.70;;;2.37;;
20609;SDS011;10463;52.378;9.688;2024-02-21T03:10:22;4.03;;;2.87;;
20609;SDS011;10463;52.378;9.688;2024-02-21T03:13:07;3.53;;;2.60;;
20609;SDS011;10463;52.378;9.688;2024-02-21T03:15:52;3.70;;;2.63;;
20609;SDS011;10463;52.378;9.688;2024-02-21T03:18:37;4.00;;;3.40;;
20609;SDS011;10463;52.378;9.688;2024-02-21T03:21:21;4.00;;;2.90;;
20609;SDS011;10463;52.378;9.688;2024-02-21T03:24:06;4.33;;;3.10;;
20609;SDS011;10463;52.378;9.688;2024-02-21T03:26:51;3.63;;;3.17;;
20609;SDS011;10463;52.378;9.688;2024-02-21T03:29:37;3.13;;;2.73;;
20609;SDS011;10463;52.378;9.688;2024-02-21T03:32:22;4.27;;;3.30;;
20609;SDS011;10463;52.378;9.688;2024-02-21T03:35:07;3.30;;;2.87;;
20609;SDS011;10463;52.378;9.688;2024-02-21T03:37:51;3.30;;;2.50;;
20609;SDS011;10463;52.378;9.688;2024-02-21T03:40:37;5.43;;;3.83;;
20609;SDS011;10463;52.378;9.688;2024-02-21T03:43:21;4.00;;;2.67;;
20609;SDS011;10463;52.378;9.688;2024-02-21T03:46:08;3.00;;;2.60;;
20609;SDS011;10463;52.378;9.688;2024-02-21T03:48:52;3.20;;;2.90;;
20609;SDS011;10463;52.378;9.688;2024-02-21T03:51:37;4.50;;;2.60;;
20609;SDS011;10463;52.378;9.688;2024-02-21T03:54:21;3.00;;;2.03;;
20609;SDS011;10463;52.378;9.688;2024-02-21T03:57:06;3.10;;;2.80;;
20609;SDS011;10463;52.378;9.688;2024-02-21T03:59:51;3.20;;;2.57;;
20609;SDS011;10463;52.378;9.688;2024-02-21T04:02:38;5.20;;;2.93;;
20609;SDS011;10463;52.378;9.688;2024-02-21T04:05:22;5.03;;;2.87;;
20609;SDS011;10463;52.378;9.688;2024-02-21T04:08:07;3.67;;;2.37;;
20609;SDS011;10463;52.378;9.688;2024-02-21T04:10:51;3.27;;;2.27;;
20609;SDS011;10463;52.378;9.688;2024-02-21T04:13:36;4.30;;;2.73;;
20609;SDS011;10463;52.378;9.688;2024-02-21T04:16:21;3.50;;;2.77;;
20609;SDS011;10463;52.378;9.688;2024-02-21T04:19:07;4.00;;;2.67;;
20609;SDS011;10463;52.378;9.688;2024-02-21T04:21:52;3.80;;;3.20;;
20609;SDS011;10463;52.378;9.688;2024-02-21T04:24:36;3.60;;;2.47;;
20609;SDS011;10463;52.378;9.688;2024-02-21T04:27:21;2.90;;;1.97;;
20609;SDS011;10463;52.378;9.688;2024-02-21T04:30:06;3.47;;;2.40;;
20609;SDS011;10463;52.378;9.688;2024-02-21T04:32:52;4.00;;;2.63;;
20609;SDS011;10463;52.378;9.688;2024-02-21T04:35:38;2.70;;;2.20;;
20609;SDS011;10463;52.378;9.688;2024-02-21T04:38:23;6.60;;;3.00;;
20609;SDS011;10463;52.378;9.688;2024-02-21T04:41:07;3.23;;;2.37;;
20609;SDS011;10463;52.378;9.688;2024-02-21T04:43:52;4.00;;;2.87;;
20609;SDS011;10463;52.378;9.688;2024-02-21T04:46:37;3.50;;;2.43;;
20609;SDS011;10463;52.378;9.688;2024-02-21T04:49:21;2.83;;;2.53;;
20609;SDS011;10463;52.378;9.688;2024-02-21T04:52:07;3.03;;;2.47;;
20609;SDS011;10463;52.378;9.688;2024-02-21T04:54:51;2.50;;;2.00;;
20609;SDS011;10463;52.378;9.688;2024-02-21T04:57:36;3.80;;;2.20;;
20609;SDS011;10463;52.378;9.688;2024-02-21T05:00:21;4.90;;;2.97;;
20609;SDS011;10463;52.378;9.688;2024-02-21T05:03:05;4.30;;;2.90;;
20609;SDS011;10463;52.378;9.688;2024-02-21T05:05:50;3.40;;;2.80;;
20609;SDS011;10463;52.378;9.688;2024-02-21T05:08:36;3.40;;;2.43;;
20609;SDS011;10463;52.378;9.688;2024-02-21T05:11:20;3.80;;;2.30;;
20609;SDS011;10463;52.378;9.688;2024-02-21T05:14:05;3.63;;;2.47;;
20609;SDS011;10463;52.378;9.688;2024-02-21T05:16:50;4.03;;;2.60;;
20609;SDS011;10463;52.378;9.688;2024-02-21T05:19:35;3.27;;;2.97;;
20609;SDS011;10463;52.378;9.688;2024-02-21T05:22:20;3.23;;;2.30;;
20609;SDS011;10463;52.378;9.688;2024-02-21T05:25:07;6.00;;;2.43;;
20609;SDS011;10463;52.378;9.688;2024-02-21T05:27:52;4.27;;;3.10;;
20609;SDS011;10463;52.378;9.688;2024-02-21T05:30:37;2.83;;;2.13;;
20609;SDS011;10463;52.378;9.688;2024-02-21T05:33:22;4.97;;;2.80;;
20609;SDS011;10463;52.378;9.688;2024-02-21T05:36:06;2.50;;;2.30;;
20609;SDS011;10463;52.378;9.688;2024-02-21T05:38:51;3.33;;;2.40;;
20609;SDS011;10463;52.378;9.688;2024-02-21T05:41:37;3.20;;;2.67;;
20609;SDS011;10463;52.378;9.688;2024-02-21T05:44:21;3.40;;;2.60;;
20609;SDS011;10463;52.378;9.688;2024-02-21T05:47:06;3.03;;;2.43;;
20609;SDS011;10463;52.378;9.688;2024-02-21T05:49:54;5.23;;;2.70;;
20609;SDS011;10463;52.378;9.688;2024-02-21T05:52:38;3.60;;;3.17;;
20609;SDS011;10463;52.378;9.688;2024-02-21T05:55:23;2.60;;;2.30;;
20609;SDS011;10463;52.378;9.688;2024-02-21T05:58:09;2.53;;;2.23;;
20609;SDS011;10463;52.378;9.688;2024-02-21T06:00:57;6.20;;;2.87;;
20609;SDS011;10463;52.378;9.688;2024-02-21T06:03:41;2.90;;;2.60;;
20609;SDS011;10463;52.378;9.688;2024-02-21T06:06:26;3.60;;;2.83;;
20609;SDS011;10463;52.378;9.688;2024-02-21T06:09:11;4.13;;;3.67;;
20609;SDS011;10463;52.378;9.688;2024-02-21T06:11:55;5.10;;;2.97;;
20609;SDS011;10463;52.378;9.688;2024-02-21T06:14:41;3.57;;;2.80;;
20609;SDS011;10463;52.378;9.688;2024-02-21T06:17:26;3.30;;;2.80;;
20609;SDS011;10463;52.378;9.688;2024-02-21T06:20:11;3.10;;;2.50;;
20609;SDS011;10463;52.378;9.688;2024-02-21T06:22:56;4.57;;;3.60;;
20609;SDS011;10463;52.378;9.688;2024-02-21T06:25:41;4.00;;;3.00;;
20609;SDS011;10463;52.378;9.688;2024-02-21T06:28:26;3.80;;;3.07;;
20609;SDS011;10463;52.378;9.688;2024-02-21T06:31:12;3.03;;;2.60;;
20609;SDS011;10463;52.378;9.688;2024-02-21T06:33:56;4.57;;;2.70;;
20609;SDS011;10463;52.378;9.688;2024-02-21T06:36:42;3.10;;;2.20;;
20609;SDS011;10463;52.378;9.688;2024-02-21T06:39:29;2.93;;;2.40;;
20609;SDS011;10463;52.378;9.688;2024-02-21T06:42:13;5.60;;;2.60;;
20609;SDS011;10463;52.378;9.688;2024-02-21T06:44:58;4.10;;;3.53;;
20609;SDS011;10463;52.378;9.688;2024-02-21T06:47:44;3.87;;;3.10;;
20609;SDS011;10463;52.378;9.688;2024-02-21T06:50:28;3.73;;;3.33;;
20609;SDS011;10463;52.378;9.688;2024-02-21T06:53:13;4.80;;;3.47;;
20609;SDS011;10463;52.378;9.688;2024-02-21T06:55:57;3.97;;;3.57;;
20609;SDS011;10463;52.378;9.688;2024-02-21T06:58:42;4.60;;;3.80;;
20609;SDS011;10463;52.378;9.688;2024-02-21T07:01:26;5.30;;;3.60;;
20609;SDS011;10463;52.378;9.688;2024-02-21T07:04:12;4.60;;;3.67;;
20609;SDS011;10463;52.378;9.688;2024-02-21T07:06:57;4.93;;;3.90;;
20609;SDS011;10463;52.378;9.688;2024-02-21T07:09:41;6.03;;;4.83;;
20609;SDS011;10463;52.378;9.688;2024-02-21T07:12:26;4.90;;;4.40;;
20609;SDS011;10463;52.378;9.688;2024-02-21T07:15:10;5.73;;;4.70;;
20609;SDS011;10463;52.378;9.688;2024-02-21T07:17:55;6.47;;;5.20;;
20609;SDS011;10463;52.378;9.688;2024-02-21T07:20:41;6.93;;;5.83;;
20609;SDS011;10463;52.378;9.688;2024-02-21T07:23:25;7.20;;;5.47;;
20609;SDS011;10463;52.378;9.688;2024-02-21T07:26:10;8.27;;;6.27;;
20609;SDS011;10463;52.378;9.688;2024-02-21T07:28:55;8.00;;;6.00;;
20609;SDS011;10463;52.378;9.688;2024-02-21T07:31:40;7.27;;;6.30;;
20609;SDS011;10463;52.378;9.688;2024-02-21T07:34:25;6.90;;;6.17;;
20609;SDS011;10463;52.378;9.688;2024-02-21T07:37:11;7.23;;;6.13;;
20609;SDS011;10463;52.378;9.688;2024-02-21T07:39:56;13.20;;;8.07;;
20609;SDS011;10463;52.378;9.688;2024-02-21T07:42:40;8.50;;;6.30;;
20609;SDS011;10463;52.378;9.688;2024-02-21T07:45:25;8.30;;;7.20;;
20609;SDS011;10463;52.378;9.688;2024-02-21T07:48:10;9.10;;;7.40;;
20609;SDS011;10463;52.378;9.688;2024-02-21T07:50:55;10.77;;;8.57;;
20609;SDS011;10463;52.378;9.688;2024-02-21T07:53:41;10.50;;;8.90;;
20609;SDS011;10463;52.378;9.688;2024-02-21T07:56:28;10.00;;;7.70;;
20609;SDS011;10463;52.378;9.688;2024-02-21T07:59:14;10.83;;;8.50;;
20609;SDS011;10463;52.378;9.688;2024-02-21T08:01:58;8.87;;;7.97;;
20609;SDS011;10463;52.378;9.688;2024-02-21T08:04:43;9.73;;;8.03;;
20609;SDS011;10463;52.378;9.688;2024-02-21T08:07:27;8.93;;;7.97;;
20609;SDS011;10463;52.378;9.688;2024-02-21T08:10:14;9.20;;;8.30;;
20609;SDS011;10463;52.378;9.688;2024-02-21T08:12:59;9.37;;;7.80;;
20609;SDS011;10463;52.378;9.688;2024-02-21T08:15:44;8.70;;;7.73;;
20609;SDS011;10463;52.378;9.688;2024-02-21T08:18:28;9.17;;;8.17;;
20609;SDS011;10463;52.378;9.688;2024-02-21T08:21:13;9.33;;;7.70;;
20609;SDS011;10463;52.378;9.688;2024-02-21T08:23:58;8.37;;;7.57;;
20609;SDS011;10463;52.378;9.688;2024-02-21T08:26:44;7.73;;;6.93;;
20609;SDS011;10463;52.378;9.688;2024-02-21T08:29:29;8.23;;;6.80;;
20609;SDS011;10463;52.378;9.688;2024-02-21T08:32:13;9.13;;;7.27;;
20609;SDS011;10463;52.378;9.688;2024-02-21T08:34:58;7.90;;;7.00;;
20609;SDS011;10463;52.378;9.688;2024-02-21T08:37:42;8.67;;;6.70;;
20609;SDS011;10463;52.378;9.688;2024-02-21T08:40:27;8.57;;;6.30;;
20609;SDS011;10463;52.378;9.688;2024-02-21T08:43:13;9.00;;;7.20;;
20609;SDS011;10463;52.378;9.688;2024-02-21T08:45:57;8.53;;;6.70;;
20609;SDS011;10463;52.378;9.688;2024-02-21T08:48:42;8.70;;;6.30;;
20609;SDS011;10463;52.378;9.688;2024-02-21T08:51:27;10.97;;;7.10;;
20609;SDS011;10463;52.378;9.688;2024-02-21T08:54:11;9.70;;;7.20;;
20609;SDS011;10463;52.378;9.688;2024-02-21T08:56:56;9.23;;;7.07;;
20609;SDS011;10463;52.378;9.688;2024-02-21T08:59:42;7.17;;;6.47;;
20609;SDS011;10463;52.378;9.688;2024-02-21T09:02:27;11.40;;;6.50;;
20609;SDS011;10463;52.378;9.688;2024-02-21T09:05:11;9.23;;;7.00;;
20609;SDS011;10463;52.378;9.688;2024-02-21T09:07:56;11.60;;;7.17;;
20609;SDS011;10463;52.378;9.688;2024-02-21T09:10:40;7.23;;;6.40;;
20609;SDS011;10463;52.378;9.688;2024-02-21T09:13:25;8.80;;;7.60;;
20609;SDS011;10463;52.378;9.688;2024-02-21T09:16:11;9.10;;;6.93;;
20609;SDS011;10463;52.378;9.688;2024-02-21T09:18:56;6.53;;;5.40;;
20609;SDS011;10463;52.378;9.688;2024-02-21T09:21:41;8.87;;;6.13;;
20609;SDS011;10463;52.378;9.688;2024-02-21T09:24:26;11.00;;;6.37;;
20609;SDS011;10463;52.378;9.688;2024-02-21T09:27:11;8.13;;;6.20;;
20609;SDS011;10463;52.378;9.688;2024-02-21T09:29:55;8.40;;;6.50;;
20609;SDS011;10463;52.378;9.688;2024-02-21T09:32:41;8.47;;;5.70;;
20609;SDS011;10463;52.378;9.688;2024-02-21T09:35:26;9.80;;;7.03;;
20609;SDS011;10463;52.378;9.688;2024-02-21T09:38:11;7.40;;;6.07;;
20609;SDS011;10463;52.378;9.688;2024-02-21T09:40:59;7.67;;;5.70;;
20609;SDS011;10463;52.378;9.688;2024-02-21T09:43:47;8.40;;;5.57;;
20609;SDS011;10463;52.378;9.688;2024-02-21T09:46:40;6.63;;;5.83;;
20609;SDS011;10463;52.378;9.688;2024-02-21T09:49:32;6.77;;;5.60;;
20609;SDS011;10463;52.378;9.688;2024-02-21T09:52:17;6.97;;;5.93;;
20609;SDS011;10463;52.378;9.688;2024-02-21T09:55:05;7.33;;;5.17;;
20609;SDS011;10463;52.378;9.688;2024-02-21T09:57:52;5.83;;;5.23;;
20609;SDS011;10463;52.378;9.688;2024-02-21T10:00:38;7.27;;;5.60;;
20609;SDS011;10463;52.378;9.688;2024-02-21T10:03:23;8.63;;;5.17;;
20609;SDS011;10463;52.378;9.688;2024-02-21T10:06:09;5.80;;;4.83;;
20609;SDS011;10463;52.378;9.688;2024-02-21T10:08:54;9.27;;;5.20;;
20609;SDS011;10463;52.378;9.688;2024-02-21T10:11:38;8.67;;;6.10;;
20609;SDS011;10463;52.378;9.688;2024-02-21T10:14:23;6.43;;;4.97;;
20609;SDS011;10463;52.378;9.688;2024-02-21T10:17:08;6.30;;;5.17;;
20609;SDS011;10463;52.378;9.688;2024-02-21T10:20:07;6.00;;;4.33;;
20609;SDS011;10463;52.378;9.688;2024-02-21T10:23:01;7.87;;;5.50;;
20609;SDS011;10463;52.378;9.688;2024-02-21T10:25:53;7.10;;;5.50;;
20609;SDS011;10463;52.378;9.688;2024-02-21T10:28:38;5.87;;;4.73;;
20609;SDS011;10463;52.378;9.688;2024-02-21T10:31:41;7.27;;;4.73;;
20609;SDS011;10463;52.378;9.688;2024-02-21T10:34:25;6.10;;;4.23;;
20609;SDS011;10463;52.378;9.688;2024-02-21T10:37:10;7.03;;;4.90;;
20609;SDS011;10463;52.378;9.688;2024-02-21T10:39:56;8.20;;;4.77;;
20609;SDS011;10463;52.378;9.688;2024-02-21T10:42:41;6.30;;;4.63;;
20609;SDS011;10463;52.378;9.688;2024-02-21T10:45:30;6.30;;;4.00;;
20609;SDS011;10463;52.378;9.688;2024-02-21T10:48:22;5.70;;;4.10;;
20609;SDS011;10463;52.378;9.688;2024-02-21T10:51:18;4.93;;;4.23;;
20609;SDS011;10463;52.378;9.688;2024-02-21T10:54:11;6.20;;;4.60;;
20609;SDS011;10463;52.378;9.688;2024-02-21T10:57:05;7.20;;;4.47;;
20609;SDS011;10463;52.378;9.688;2024-02-21T10:59:50;5.00;;;3.30;;
20609;SDS011;10463;52.378;9.688;2024-02-21T11:02:37;11.43;;;4.27;;
20609;SDS011;10463;52.378;9.688;2024-02-21T11:05:24;6.80;;;4.80;;
20609;SDS011;10463;52.378;9.688;2024-02-21T11:08:09;5.67;;;4.50;;
20609;SDS011;10463;52.378;9.688;2024-02-21T11:10:56;6.77;;;4.33;;
20609;SDS011;10463;52.378;9.688;2024-02-21T11:13:46;5.90;;;4.33;;
20609;SDS011;10463;52.378;9.688;2024-02-21T11:16:35;5.73;;;4.17;;
20609;SDS011;10463;52.378;9.688;2024-02-21T11:19:22;9.33;;;4.17;;
20609;SDS011;10463;52.378;9.688;2024-02-21T11:22:14;5.93;;;4.10;;
20609;SDS011;10463;52.378;9.688;2024-02-21T11:25:06;9.07;;;4.50;;
20609;SDS011;10463;52.378;9.688;2024-02-21T11:28:04;5.63;;;3.80;;
20609;SDS011;10463;52.378;9.688;2024-02-21T11:30:53;8.00;;;4.47;;
20609;SDS011;10463;52.378;9.688;2024-02-21T11:33:48;5.87;;;3.53;;
20609;SDS011;10463;52.378;9.688;2024-02-21T11:36:32;7.03;;;3.70;;
20609;SDS011;10463;52.378;9.688;2024-02-21T11:39:21;5.20;;;3.83;;
20609;SDS011;10463;52.378;9.688;2024-02-21T11:42:07;5.67;;;4.00;;
20609;SDS011;10463;52.378;9.688;2024-02-21T11:44:53;7.33;;;3.60;;
20609;SDS011;10463;52.378;9.688;2024-02-21T11:47:43;5.73;;;3.50;;
20609;SDS011;10463;52.378;9.688;2024-02-21T11:50:29;6.13;;;3.93;;
20609;SDS011;10463;52.378;9.688;2024-02-21T11:53:14;5.43;;;3.37;;
20609;SDS011;10463;52.378;9.688;2024-02-21T11:55:59;6.70;;;4.17;;
20609;SDS011;10463;52.378;9.688;2024-02-21T11:58:44;7.73;;;3.70;;
20609;SDS011;10463;52.378;9.688;2024-02-21T12:01:29;5.03;;;3.30;;
20609;SDS011;10463;52.378;9.688;2024-02-21T12:04:15;10.90;;;3.13;;
20609;SDS011;10463;52.378;9.688;2024-02-21T12:07:04;5.40;;;3.73;;
20609;SDS011;10463;52.378;9.688;2024-02-21T12:09:49;4.67;;;3.37;;
20609;SDS011;10463;52.378;9.688;2024-02-21T12:12:34;4.03;;;3.10;;
20609;SDS011;10463;52.378;9.688;2024-02-21T12:15:21;5.77;;;3.40;;
20609;SDS011;10463;52.378;9.688;2024-02-21T12:18:05;5.03;;;3.47;;
20609;SDS011;10463;52.378;9.688;2024-02-21T12:20:52;8.67;;;3.97;;
20609;SDS011;10463;52.378;9.688;2024-02-21T12:23:38;5.57;;;3.00;;
20609;SDS011;10463;52.378;9.688;2024-02-21T12:26:24;3.60;;;2.67;;
20609;SDS011;10463;52.378;9.688;2024-02-21T12:29:08;4.33;;;3.33;;
20609;SDS011;10463;52.378;9.688;2024-02-21T12:31:53;4.30;;;2.80;;
20609;SDS011;10463;52.378;9.688;2024-02-21T12:34:38;6.57;;;2.90;;
20609;SDS011;10463;52.378;9.688;2024-02-21T12:37:25;5.20;;;3.00;;
20609;SDS011;10463;52.378;9.688;2024-02-21T12:40:10;6.03;;;3.33;;
20609;SDS011;10463;52.378;9.688;2024-02-21T12:42:56;3.97;;;2.90;;
20609;SDS011;10463;52.378;9.688;2024-02-21T12:45:41;4.30;;;2.63;;
20609;SDS011;10463;52.378;9.688;2024-02-21T12:48:26;6.10;;;2.90;;
20609;SDS011;10463;52.378;9.688;2024-02-21T12:51:10;5.00;;;3.00;;
20609;SDS011;10463;52.378;9.688;2024-02-21T12:53:56;4.27;;;3.30;;
20609;SDS011;10463;52.378;9.688;2024-02-21T12:56:41;4.93;;;3.60;;
20609;SDS011;10463;52.378;9.688;2024-02-21T12:59:26;4.00;;;2.80;;
20609;SDS011;10463;52.378;9.688;2024-02-21T13:02:12;4.20;;;2.47;;
20609;SDS011;10463;52.378;9.688;2024-02-21T13:04:57;5.10;;;3.03;;
20609;SDS011;10463;52.378;9.688;2024-02-21T13:07:41;5.13;;;3.40;;
20609;SDS011;10463;52.378;9.688;2024-02-21T13:10:27;5.23;;;2.87;;
20609;SDS011;10463;52.378;9.688;2024-02-21T13:13:12;5.10;;;3.37;;
20609;SDS011;10463;52.378;9.688;2024-02-21T13:15:57;3.83;;;2.67;;
20609;SDS011;10463;52.378;9.688;2024-02-21T13:18:41;4.27;;;2.60;;
20609;SDS011;10463;52.378;9.688;2024-02-21T13:21:26;3.97;;;2.93;;
20609;SDS011;10463;52.378;9.688;2024-02-21T13:24:11;2.80;;;2.33;;
20609;SDS011;10463;52.378;9.688;2024-02-21T13:26:57;3.23;;;2.43;;
20609;SDS011;10463;52.378;9.688;2024-02-21T13:29:41;3.43;;;2.43;;
20609;SDS011;10463;52.378;9.688;2024-02-21T13:32:26;3.00;;;2.27;;
20609;SDS011;10463;52.378;9.688;2024-02-21T13:35:10;4.83;;;2.70;;
20609;SDS011;10463;52.378;9.688;2024-02-21T13:37:55;4.77;;;2.67;;
20609;SDS011;10463;52.378;9.688;2024-02-21T13:40:40;4.67;;;3.03;;
20609;SDS011;10463;52.378;9.688;2024-02-21T13:43:27;3.17;;;2.17;;
20609;SDS011;10463;52.378;9.688;2024-02-21T13:46:12;3.17;;;2.10;;
20609;SDS011;10463;52.378;9.688;2024-02-21T13:49:03;3.47;;;2.70;;
20609;SDS011;10463;52.378;9.688;2024-02-21T13:51:49;4.20;;;2.60;;
20609;SDS011;10463;52.378;9.688;2024-02-21T13:54:33;3.10;;;2.67;;
20609;SDS011;10463;52.378;9.688;2024-02-21T13:57:18;2.97;;;2.13;;
20609;SDS011;10463;52.378;9.688;2024-02-21T14:00:05;3.13;;;2.30;;
20609;SDS011;10463;52.378;9.688;2024-02-21T14:02:58;2.70;;;1.87;;
20609;SDS011;10463;52.378;9.688;2024-02-21T14:05:43;4.37;;;2.27;;
20609;SDS011;10463;52.378;9.688;2024-02-21T14:08:28;4.40;;;2.80;;
20609;SDS011;10463;52.378;9.688;2024-02-21T14:11:12;3.13;;;2.37;;
20609;SDS011;10463;52.378;9.688;2024-02-21T14:13:58;4.40;;;2.77;;
20609;SDS011;10463;52.378;9.688;2024-02-21T14:16:44;3.77;;;2.53;;
20609;SDS011;10463;52.378;9.688;2024-02-21T14:19:31;4.00;;;2.77;;
20609;SDS011;10463;52.378;9.688;2024-02-21T14:22:16;2.63;;;2.20;;
20609;SDS011;10463;52.378;9.688;2024-02-21T14:25:01;3.67;;;2.50;;
20609;SDS011;10463;52.378;9.688;2024-02-21T14:27:46;3.90;;;2.70;;
20609;SDS011;10463;52.378;9.688;2024-02-21T14:30:31;3.90;;;2.60;;
20609;SDS011;10463;52.378;9.688;2024-02-21T14:33:17;3.80;;;2.20;;
20609;SDS011;10463;52.378;9.688;2024-02-21T14:36:01;4.70;;;2.20;;
20609;SDS011;10463;52.378;9.688;2024-02-21T14:38:46;4.00;;;2.40;;
20609;SDS011;10463;52.378;9.688;2024-02-21T14:41:31;3.10;;;2.40;;
20609;SDS011;10463;52.378;9.688;2024-02-21T14:44:19;3.63;;;2.20;;
20609;SDS011;10463;52.378;9.688;2024-02-21T14:47:04;4.20;;;2.30;;
20609;SDS011;10463;52.378;9.688;2024-02-21T14:49:50;2.97;;;2.43;;
20609;SDS011;10463;52.378;9.688;2024-02-21T14:52:34;6.17;;;2.73;;
20609;SDS011;10463;52.378;9.688;2024-02-21T14:55:20;2.90;;;2.30;;
20609;SDS011;10463;52.378;9.688;2024-02-21T14:58:05;3.50;;;2.27;;
20609;SDS011;10463;52.378;9.688;2024-02-21T15:00:51;4.80;;;3.10;;
20609;SDS011;10463;52.378;9.688;2024-02-21T15:03:36;3.70;;;2.50;;
20609;SDS011;10463;52.378;9.688;2024-02-21T15:06:22;5.47;;;2.80;;
20609;SDS011;10463;52.378;9.688;2024-02-21T15:09:06;6.10;;;2.90;;
20609;SDS011;10463;52.378;9.688;2024-02-21T15:11:51;2.50;;;1.80;;
20609;SDS011;10463;52.378;9.688;2024-02-21T15:14:35;3.87;;;2.20;;
20609;SDS011;10463;52.378;9.688;2024-02-21T15:17:20;3.60;;;2.20;;
20609;SDS011;10463;52.378;9.688;2024-02-21T15:20:06;4.40;;;2.33;;
20609;SDS011;10463;52.378;9.688;2024-02-21T15:22:53;3.47;;;2.20;;
20609;SDS011;10463;52.378;9.688;2024-02-21T15:25:37;3.93;;;2.33;;
20609;SDS011;10463;52.378;9.688;2024-02-21T15:28:22;5.23;;;2.60;;
20609;SDS011;10463;52.378;9.688;2024-02-21T15:31:07;3.70;;;2.47;;
20609;SDS011;10463;52.378;9.688;2024-02-21T15:33:52;3.90;;;2.40;;
20609;SDS011;10463;52.378;9.688;2024-02-21T15:36:37;3.70;;;2.57;;
20609;SDS011;10463;52.378;9.688;2024-02-21T15:39:23;4.73;;;2.50;;
20609;SDS011;10463;52.378;9.688;2024-02-21T15:42:10;4.20;;;2.90;;
20609;SDS011;10463;52.378;9.688;2024-02-21T15:44:55;2.90;;;1.97;;
20609;SDS011;10463;52.378;9.688;2024-02-21T15:47:40;5.10;;;2.37;;
20609;SDS011;10463;52.378;9.688;2024-02-21T15:50:25;2.60;;;1.80;;
20609;SDS011;10463;52.378;9.688;2024-02-21T15:53:12;4.10;;;2.27;;
20609;SDS011;10463;52.378;9.688;2024-02-21T15:55:58;5.13;;;2.37;;
20609;SDS011;10463;52.378;9.688;2024-02-21T15:58:42;3.50;;;1.90;;
20609;SDS011;10463;52.378;9.688;2024-02-21T16:01:27;4.20;;;2.53;;
20609;SDS011;10463;52.378;9.688;2024-02-21T16:04:17;4.07;;;2.10;;
20609;SDS011;10463;52.378;9.688;2024-02-21T16:07:02;3.30;;;2.30;;
20609;SDS011;10463;52.378;9.688;2024-02-21T16:09:46;4.77;;;2.50;;
20609;SDS011;10463;52.378;9.688;2024-02-21T16:12:32;5.60;;;2.23;;
20609;SDS011;10463;52.378;9.688;2024-02-21T16:15:17;2.60;;;1.87;;
20609;SDS011;10463;52.378;9.688;2024-02-21T16:18:02;3.70;;;2.03;;
20609;SDS011;10463;52.378;9.688;2024-02-21T16:20:47;3.30;;;2.00;;
20609;SDS011;10463;52.378;9.688;2024-02-21T16:23:31;4.07;;;2.20;;
20609;SDS011;10463;52.378;9.688;2024-02-21T16:26:16;2.90;;;1.70;;
20609;SDS011;10463;52.378;9.688;2024-02-21T16:29:02;3.87;;;2.07;;
20609;SDS011;10463;52.378;9.688;2024-02-21T16:31:48;3.20;;;1.67;;
20609;SDS011;10463;52.378;9.688;2024-02-21T16:34:33;4.57;;;2.40;;
20609;SDS011;10463;52.378;9.688;2024-02-21T16:37:19;3.83;;;2.13;;